createdAt,value
2022-11-16T00:01:43.791Z,99530.94
2022-11-16T00:04:12.022Z,99523.63
2022-11-16T00:06:38.973Z,99526.81
2022-11-16T00:09:23.875Z,99519.53
2022-11-16T00:11:53.064Z,99522.53
2022-11-16T00:14:21.133Z,99520.47
2022-11-16T00:16:48.234Z,99517.25
2022-11-16T00:19:15.027Z,99521.38
2022-11-16T00:21:41.844Z,99519.69
2022-11-16T00:24:12.412Z,99506.44
2022-11-16T00:26:39.036Z,99515.63
2022-11-16T00:29:05.689Z,99510.50
2022-11-16T00:31:32.497Z,99505.09
2022-11-16T00:33:59.141Z,99502.16
2022-11-16T00:36:25.786Z,99502.69
2022-11-16T00:38:56.211Z,99497.88
2022-11-16T00:41:23.180Z,99484.91
2022-11-16T00:43:49.858Z,99489.94
2022-11-16T00:46:16.603Z,99490.41
2022-11-16T00:48:43.285Z,99484.34
2022-11-16T00:51:09.985Z,99478.81
2022-11-16T00:53:37.064Z,99474.91
2022-11-16T00:56:04.451Z,99477.53
2022-11-16T00:58:31.955Z,99476.44
2022-11-16T01:01:05.395Z,99482.44
2022-11-16T01:03:32.546Z,99478.19
2022-11-16T01:06:06.945Z,99472.72
2022-11-16T01:08:36.351Z,99451.69
2022-11-16T01:11:22.408Z,99464.16
2022-11-16T01:13:49.196Z,99464.34
2022-11-16T01:16:17.481Z,99459.91
2022-11-16T01:18:48.235Z,99454.28
2022-11-16T01:21:14.935Z,99448.38
2022-11-16T01:23:41.627Z,99448.03
2022-11-16T01:26:08.724Z,99435.09
2022-11-16T01:28:35.792Z,99435.34
2022-11-16T01:31:03.256Z,99438.69
2022-11-16T01:33:30.416Z,99434.59
2022-11-16T01:35:57.067Z,99430.59
2022-11-16T01:38:28.464Z,99438.84
2022-11-16T01:40:56.325Z,99438.38
2022-11-16T01:43:25.677Z,99420.84
2022-11-16T01:45:52.760Z,99426.38
2022-11-16T01:48:25.035Z,99422.31
2022-11-16T01:50:53.564Z,99418.81
2022-11-16T01:53:20.628Z,99407.97
2022-11-16T01:55:48.813Z,99417.59
2022-11-16T01:58:20.887Z,99404.00
2022-11-16T02:00:49.256Z,99408.91
2022-11-16T02:03:19.987Z,99410.66
2022-11-16T02:06:12.220Z,99399.22
2022-11-16T02:09:15.654Z,99404.50
2022-11-16T02:12:11.776Z,99394.53
2022-11-16T02:14:50.589Z,99398.69
2022-11-16T02:17:29.329Z,99400.31
2022-11-16T02:20:09.785Z,99386.25
2022-11-16T02:22:39.224Z,99394.81
2022-11-16T02:25:16.614Z,99394.75
2022-11-16T02:28:14.441Z,99391.63
2022-11-16T02:30:47.224Z,99380.53
2022-11-16T02:33:18.567Z,99383.38
2022-11-16T02:35:53.250Z,99384.31
2022-11-16T02:38:26.552Z,99384.81
2022-11-16T02:40:58.917Z,99384.94
2022-11-16T02:43:31.111Z,99380.91
2022-11-16T02:46:03.605Z,99370.22
2022-11-16T02:48:35.958Z,99373.25
2022-11-16T02:51:06.537Z,99369.59
2022-11-16T02:53:39.801Z,99366.25
2022-11-16T02:56:06.527Z,99356.91
2022-11-16T02:58:33.861Z,99362.72
2022-11-16T03:01:07.401Z,99364.31
2022-11-16T03:03:43.368Z,99355.69
2022-11-16T03:06:16.567Z,99357.63
2022-11-16T03:08:48.169Z,99354.97
2022-11-16T03:11:33.735Z,99355.25
2022-11-16T03:14:05.928Z,99358.69
2022-11-16T03:16:41.068Z,99349.88
2022-11-16T03:19:11.888Z,99348.25
2022-11-16T03:21:44.359Z,99349.00
2022-11-16T03:24:11.091Z,99348.06
2022-11-16T03:27:30.265Z,99347.19
2022-11-16T03:30:07.951Z,99351.25
2022-11-16T03:32:56.528Z,99346.88
2022-11-16T03:35:27.962Z,99331.41
2022-11-16T03:37:58.794Z,99334.16
2022-11-16T03:40:29.070Z,99334.50
2022-11-16T03:42:58.212Z,99333.19
2022-11-16T03:45:25.249Z,99324.13
2022-11-16T03:47:51.987Z,99335.00
2022-11-16T03:50:18.722Z,99337.06
2022-11-16T03:52:45.491Z,99329.28
2022-11-16T03:55:12.128Z,99332.44
2022-11-16T03:57:38.848Z,99310.53
2022-11-16T04:00:09.215Z,99327.66
2022-11-16T04:02:35.868Z,99324.81
2022-11-16T04:05:21.150Z,99326.44
2022-11-16T04:08:07.780Z,99326.81
2022-11-16T04:10:53.172Z,99321.16
2022-11-16T04:13:45.228Z,99330.97
2022-11-16T04:16:30.750Z,99332.41
2022-11-16T04:19:15.926Z,99325.16
2022-11-16T04:22:07.452Z,99323.59
2022-11-16T04:24:38.389Z,99319.22
2022-11-16T04:27:27.616Z,99327.88
2022-11-16T04:29:57.488Z,99301.97
2022-11-16T04:32:42.687Z,99315.03
2022-11-16T04:35:28.467Z,99318.41
2022-11-16T04:37:58.170Z,99316.59
2022-11-16T04:40:29.709Z,99304.31
2022-11-16T04:43:02.575Z,99305.97
2022-11-16T04:45:47.639Z,99287.69
2022-11-16T04:48:16.094Z,99295.31
2022-11-16T04:50:43.330Z,99301.03
2022-11-16T04:53:10.338Z,99308.59
2022-11-16T04:55:37.141Z,99296.50
2022-11-16T04:58:04.314Z,99292.13
2022-11-16T05:00:31.419Z,99288.69
2022-11-16T05:03:01.338Z,99290.59
2022-11-16T05:05:28.748Z,99295.13
2022-11-16T05:07:55.586Z,99286.50
2022-11-16T05:10:22.498Z,99283.50
2022-11-16T05:12:49.137Z,99284.84
2022-11-16T05:15:17.728Z,99273.34
2022-11-16T05:17:44.537Z,99257.78
2022-11-16T05:20:30.483Z,99276.13
2022-11-16T05:22:58.219Z,99284.84
2022-11-16T05:25:25.012Z,99280.19
2022-11-16T05:27:51.636Z,99279.66
2022-11-16T05:30:19.827Z,99281.66
2022-11-16T05:32:46.663Z,99262.31
2022-11-16T05:35:13.299Z,99254.19
2022-11-16T05:37:40.010Z,99259.69
2022-11-16T05:40:07.630Z,99256.03
2022-11-16T05:42:34.436Z,99272.28
2022-11-16T05:45:01.321Z,99260.09
2022-11-16T05:47:27.975Z,99242.06
2022-11-16T05:49:54.668Z,99244.22
2022-11-16T05:52:21.342Z,99261.69
2022-11-16T05:54:48.039Z,99261.84
2022-11-16T05:57:15.446Z,99263.31
2022-11-16T05:59:42.653Z,99238.13
2022-11-16T06:02:09.314Z,99278.31
2022-11-16T06:04:35.971Z,99263.25
2022-11-16T06:09:56.928Z,99279.34
2022-11-16T06:12:23.581Z,99273.31
2022-11-16T06:14:50.231Z,99278.97
2022-11-16T06:17:16.904Z,99285.88
2022-11-16T06:19:43.521Z,99289.44
2022-11-16T06:22:10.211Z,99278.50
2022-11-16T06:24:36.925Z,99283.69
2022-11-16T06:27:03.575Z,99282.22
2022-11-16T06:29:30.185Z,99286.59
2022-11-16T06:31:56.882Z,99266.13
2022-11-16T06:34:23.993Z,99277.97
2022-11-16T06:36:50.720Z,99259.25
2022-11-16T06:39:17.351Z,99273.94
2022-11-16T06:41:43.990Z,99278.06
2022-11-16T06:44:10.712Z,99274.13
2022-11-16T06:46:37.451Z,99279.22
2022-11-16T06:49:04.719Z,99272.47
2022-11-16T06:51:31.369Z,99259.00
2022-11-16T06:56:41.885Z,99281.31
2022-11-16T06:59:08.677Z,99275.22
2022-11-16T07:01:35.408Z,99274.59
2022-11-16T07:04:02.135Z,99266.66
2022-11-16T07:06:29.968Z,99265.97
2022-11-16T07:08:56.806Z,99258.50
2022-11-16T07:11:23.507Z,99274.06
2022-11-16T07:13:50.195Z,99263.97
2022-11-16T07:16:16.818Z,99255.31
2022-11-16T07:18:43.510Z,99255.72
2022-11-16T07:21:13.183Z,99261.31
2022-11-16T07:23:40.129Z,99253.19
2022-11-16T07:26:08.004Z,99238.91
2022-11-16T07:28:35.379Z,99258.31
2022-11-16T07:31:07.648Z,99260.94
2022-11-16T07:33:35.712Z,99258.50
2022-11-16T07:36:10.575Z,99251.97
2022-11-16T07:38:37.467Z,99225.88
2022-11-16T07:41:06.418Z,99230.16
2022-11-16T07:43:36.842Z,99240.91
2022-11-16T07:46:30.515Z,99236.03
2022-11-16T07:48:50.523Z,99231.97
2022-11-16T07:51:18.397Z,99234.03
2022-11-16T07:53:45.761Z,99226.00
2022-11-16T07:56:13.142Z,99234.53
2022-11-16T07:58:40.399Z,99238.84
2022-11-16T08:01:11.556Z,99246.09
2022-11-16T08:03:39.409Z,99240.44
2022-11-16T08:06:11.229Z,99238.53
2022-11-16T08:08:38.332Z,99236.88
2022-11-16T08:11:09.835Z,99235.84
2022-11-16T08:13:38.624Z,99231.13
2022-11-16T08:16:09.427Z,99241.06
2022-11-16T08:18:37.470Z,99246.63
2022-11-16T08:21:06.148Z,99250.38
2022-11-16T08:23:33.364Z,99244.75
2022-11-16T08:26:02.296Z,99243.59
2022-11-16T08:28:29.593Z,99222.84
2022-11-16T08:30:56.797Z,99228.72
2022-11-16T08:33:24.557Z,99225.81
2022-11-16T08:35:52.668Z,99219.69
2022-11-16T08:38:19.292Z,99230.75
2022-11-16T08:40:46.820Z,99233.91
2022-11-16T08:43:13.938Z,99215.97
2022-11-16T08:45:40.598Z,99235.81
2022-11-16T08:48:07.342Z,99231.06
2022-11-16T08:50:55.486Z,99213.59
2022-11-16T08:53:20.629Z,99219.50
2022-11-16T08:55:47.302Z,99200.19
2022-11-16T08:58:13.954Z,99215.78
2022-11-16T09:00:40.560Z,99220.56
2022-11-16T09:03:07.350Z,99212.16
2022-11-16T09:05:33.968Z,99215.44
2022-11-16T09:08:01.184Z,99213.53
2022-11-16T09:10:29.237Z,99208.44
2022-11-16T09:15:39.913Z,99195.28
2022-11-16T09:18:07.031Z,99186.59
2022-11-16T09:20:33.692Z,99199.47
2022-11-16T09:23:00.400Z,99190.00
2022-11-16T09:25:27.295Z,99183.91
2022-11-16T09:27:57.131Z,99179.72
2022-11-16T09:30:23.822Z,99183.53
2022-11-16T09:32:50.521Z,99165.78
2022-11-16T09:35:17.466Z,99163.06
2022-11-16T09:37:44.407Z,99163.13
2022-11-16T09:43:11.667Z,99160.50
2022-11-16T09:45:47.764Z,99155.16
2022-11-16T09:48:17.235Z,99156.34
2022-11-16T09:50:46.840Z,99146.59
2022-11-16T09:53:48.954Z,99138.25
2022-11-16T09:56:23.874Z,99138.91
2022-11-16T09:59:05.397Z,99130.31
2022-11-16T10:01:52.727Z,99118.38
2022-11-16T10:07:46.715Z,99109.94
2022-11-16T10:10:18.664Z,99108.16
2022-11-16T10:12:48.266Z,99107.94
2022-11-16T10:15:41.303Z,99101.47
2022-11-16T10:18:28.749Z,99097.78
2022-11-16T10:21:23.331Z,99089.81
2022-11-16T10:24:02.024Z,99082.44
2022-11-16T10:26:46.814Z,99079.53
2022-11-16T10:29:55.687Z,99078.81
2022-11-16T10:32:29.371Z,99070.38
2022-11-16T10:35:12.159Z,99076.66
2022-11-16T10:37:48.201Z,99023.75
2022-11-16T10:40:36.858Z,99060.06
2022-11-16T10:43:17.036Z,99060.31
2022-11-16T10:45:47.931Z,99033.91
2022-11-16T10:48:32.263Z,99058.19
2022-11-16T10:50:58.930Z,99058.16
2022-11-16T10:53:29.009Z,99040.38
2022-11-16T10:56:23.003Z,99050.00
2022-11-16T10:58:58.123Z,99046.19
2022-11-16T11:01:38.110Z,99028.63
2022-11-16T11:04:23.630Z,99024.78
2022-11-16T11:07:19.121Z,99020.22
2022-11-16T11:09:52.816Z,99018.91
2022-11-16T11:12:39.409Z,99020.44
2022-11-16T11:15:15.631Z,99011.59
2022-11-16T11:17:45.214Z,99010.84
2022-11-16T11:20:14.837Z,99006.38
2022-11-16T11:22:59.629Z,99006.88
2022-11-16T11:25:30.444Z,98999.72
2022-11-16T11:28:21.712Z,98993.22
2022-11-16T11:31:02.074Z,98988.31
2022-11-16T11:33:51.827Z,98980.22
2022-11-16T11:36:35.636Z,98981.63
2022-11-16T11:39:13.545Z,98981.84
2022-11-16T11:41:45.173Z,98967.47
2022-11-16T11:44:20.096Z,98964.31
2022-11-16T11:47:50.301Z,98966.25
2022-11-16T11:50:14.439Z,98969.69
2022-11-16T11:53:23.450Z,98965.50
2022-11-16T11:55:57.843Z,98975.25
2022-11-16T11:58:34.108Z,98965.47
2022-11-16T12:01:40.000Z,98966.81
2022-11-16T12:04:40.637Z,98950.69
2022-11-16T12:07:46.763Z,98958.41
2022-11-16T12:10:41.333Z,98950.06
2022-11-16T12:13:13.903Z,98939.13
2022-11-16T12:16:06.617Z,98943.38
2022-11-16T12:18:49.482Z,98938.06
2022-11-16T12:21:30.955Z,98910.72
2022-11-16T12:24:16.786Z,98932.00
2022-11-16T12:27:01.774Z,98921.59
2022-11-16T12:30:02.046Z,98933.72
2022-11-16T12:32:34.816Z,98925.94
2022-11-16T12:35:26.217Z,98921.38
2022-11-16T12:38:14.686Z,98927.81
2022-11-16T12:41:09.297Z,98923.22
2022-11-16T12:43:51.022Z,98916.69
2022-11-16T12:46:29.956Z,98919.22
2022-11-16T12:49:05.614Z,98914.63
2022-11-16T12:51:45.391Z,98918.16
2022-11-16T12:54:38.646Z,98895.91
2022-11-16T12:57:33.656Z,98912.38
2022-11-16T13:00:09.741Z,98912.75
2022-11-16T13:02:43.661Z,98897.91
2022-11-16T13:05:21.235Z,98913.13
2022-11-16T13:07:52.961Z,98903.16
2022-11-16T13:10:24.988Z,98909.25
2022-11-16T13:13:21.969Z,98893.66
2022-11-16T13:15:47.887Z,98900.56
2022-11-16T13:18:18.292Z,98893.28
2022-11-16T13:20:50.916Z,98905.97
2022-11-16T13:23:26.725Z,98897.66
2022-11-16T13:26:18.540Z,98892.66
2022-11-16T13:28:55.044Z,98902.84
2022-11-16T13:31:24.916Z,98900.91
2022-11-16T13:33:58.031Z,98908.84
2022-11-16T13:36:37.219Z,98898.19
2022-11-16T13:39:06.241Z,98900.69
2022-11-16T13:41:43.107Z,98902.66
2022-11-16T13:44:20.066Z,98900.50
2022-11-16T13:47:05.403Z,98885.81
2022-11-16T13:49:36.820Z,98884.75
2022-11-16T13:52:23.065Z,98884.22
2022-11-16T13:54:55.943Z,98880.00
2022-11-16T13:57:34.654Z,98877.56
2022-11-16T14:00:01.314Z,98887.56
2022-11-16T14:02:36.668Z,98888.06
2022-11-16T14:05:14.107Z,98892.31
2022-11-16T14:07:49.851Z,98888.16
2022-11-16T14:10:34.981Z,98888.41
2022-11-16T14:13:06.527Z,98879.72
2022-11-16T14:15:37.949Z,98886.44
2022-11-16T14:18:16.302Z,98888.66
2022-11-16T14:21:06.523Z,98890.47
2022-11-16T14:24:13.952Z,98885.78
2022-11-16T14:26:52.708Z,98890.00
2022-11-16T14:29:35.404Z,98890.31
2022-11-16T14:32:04.750Z,98878.66
2022-11-16T14:34:41.743Z,98889.09
2022-11-16T14:37:30.191Z,98895.47
2022-11-16T14:40:19.976Z,98892.66
2022-11-16T14:43:15.249Z,98887.72
2022-11-16T14:45:41.322Z,98893.50
2022-11-16T14:48:19.955Z,98889.50
2022-11-16T14:51:00.298Z,98888.63
2022-11-16T14:53:29.053Z,98895.16
2022-11-16T14:56:10.800Z,98884.19
2022-11-16T14:58:38.521Z,98879.56
2022-11-16T15:01:08.416Z,98884.34
2022-11-16T15:03:41.913Z,98884.94
2022-11-16T15:06:09.085Z,98890.09
2022-11-16T15:08:45.531Z,98883.75
2022-11-16T15:11:23.292Z,98887.34
2022-11-16T15:13:50.704Z,98886.50
2022-11-16T15:16:20.204Z,98884.25
2022-11-16T15:19:00.602Z,98892.19
2022-11-16T15:21:28.096Z,98886.34
2022-11-16T15:24:23.500Z,98888.16
2022-11-16T15:26:41.641Z,98884.50
2022-11-16T15:29:15.647Z,98883.59
2022-11-16T15:31:42.773Z,98884.59
2022-11-16T15:34:13.476Z,98874.06
2022-11-16T15:36:41.371Z,98868.53
2022-11-16T15:39:22.218Z,98867.69
2022-11-16T15:41:51.228Z,98866.53
2022-11-16T15:44:20.514Z,98879.56
2022-11-16T15:46:55.898Z,98874.13
2022-11-16T15:49:29.100Z,98875.72
2022-11-16T15:52:00.310Z,98877.13
2022-11-16T15:54:29.866Z,98872.16
2022-11-16T15:57:08.164Z,98882.31
2022-11-16T15:59:38.024Z,98878.66
2022-11-16T16:02:05.272Z,98896.06
2022-11-16T16:04:32.102Z,98874.78
2022-11-16T16:07:00.339Z,98891.69
2022-11-16T16:09:32.705Z,98884.63
2022-11-16T16:12:23.921Z,98884.47
2022-11-16T16:14:52.485Z,98886.31
2022-11-16T16:17:30.036Z,98894.66
2022-11-16T16:20:00.443Z,98880.53
2022-11-16T16:22:33.142Z,98871.31
2022-11-16T16:25:01.737Z,98895.50
2022-11-16T16:27:30.419Z,98882.97
2022-11-16T16:29:59.003Z,98888.50
2022-11-16T16:32:29.827Z,98882.69
2022-11-16T16:34:59.436Z,98864.69
2022-11-16T16:37:29.830Z,98860.47
2022-11-16T16:39:57.417Z,98861.91
2022-11-16T16:42:25.124Z,98876.13
2022-11-16T16:44:52.584Z,98872.44
2022-11-16T16:47:22.475Z,98875.03
2022-11-16T16:49:49.985Z,98876.00
2022-11-16T16:52:17.780Z,98864.56
2022-11-16T16:54:44.872Z,98869.28
2022-11-16T16:57:16.476Z,98864.81
2022-11-16T16:59:45.703Z,98856.72
2022-11-16T17:02:14.383Z,98854.84
2022-11-16T17:04:41.592Z,98854.28
2022-11-16T17:07:08.532Z,98848.19
2022-11-16T17:09:35.299Z,98854.31
2022-11-16T17:12:03.559Z,98840.50
2022-11-16T17:14:31.014Z,98842.50
2022-11-16T17:16:57.917Z,98843.16
2022-11-16T17:19:24.653Z,98851.75
2022-11-16T17:21:52.364Z,98844.66
2022-11-16T17:24:19.775Z,98847.88
2022-11-16T17:26:50.710Z,98851.25
2022-11-16T17:29:17.480Z,98823.25
2022-11-16T17:31:47.244Z,98841.47
2022-11-16T17:34:14.768Z,98850.00
2022-11-16T17:36:42.568Z,98842.34
2022-11-16T17:39:09.923Z,98830.66
2022-11-16T17:41:37.283Z,98834.34
2022-11-16T17:44:04.717Z,98850.00
2022-11-16T17:46:33.112Z,98842.34
2022-11-16T17:49:00.209Z,98840.84
2022-11-16T17:51:30.077Z,98840.41
2022-11-16T17:53:56.823Z,98835.41
2022-11-16T17:56:27.759Z,98843.19
2022-11-16T17:58:55.891Z,98830.91
2022-11-16T18:01:23.235Z,98834.28
2022-11-16T18:03:50.144Z,98829.88
2022-11-16T18:06:20.086Z,98829.31
2022-11-16T18:08:47.737Z,98833.38
2022-11-16T18:11:23.040Z,98831.63
2022-11-16T18:14:04.789Z,98831.53
2022-11-16T18:16:33.575Z,98827.19
2022-11-16T18:19:02.710Z,98822.59
2022-11-16T18:21:29.911Z,98827.22
2022-11-16T18:23:58.988Z,98837.28
2022-11-16T18:26:26.744Z,98832.31
2022-11-16T18:28:54.059Z,98827.41
2022-11-16T18:31:23.283Z,98823.97
2022-11-16T18:33:50.756Z,98826.41
2022-11-16T18:36:19.745Z,98826.06
2022-11-16T18:38:48.497Z,98826.94
2022-11-16T18:41:20.152Z,98821.84
2022-11-16T18:43:54.584Z,98831.72
2022-11-16T18:46:25.942Z,98829.19
2022-11-16T18:48:53.440Z,98831.97
2022-11-16T18:51:21.872Z,98831.84
2022-11-16T18:53:52.607Z,98832.69
2022-11-16T18:56:19.723Z,98834.81
2022-11-16T18:58:51.901Z,98822.66
2022-11-16T19:01:22.575Z,98828.38
2022-11-16T19:03:50.496Z,98817.47
2022-11-16T19:06:18.512Z,98829.53
2022-11-16T19:08:55.003Z,98824.47
2022-11-16T19:11:24.456Z,98824.75
2022-11-16T19:13:57.434Z,98814.81
2022-11-16T19:16:25.097Z,98822.53
2022-11-16T19:18:52.323Z,98825.31
2022-11-16T19:21:19.481Z,98824.16
2022-11-16T19:23:48.954Z,98824.75
2022-11-16T19:26:18.337Z,98828.38
2022-11-16T19:28:47.339Z,98831.00
2022-11-16T19:31:25.986Z,98829.09
2022-11-16T19:34:05.200Z,98831.00
2022-11-16T19:36:33.269Z,98783.69
2022-11-16T19:39:00.157Z,98828.75
2022-11-16T19:41:27.870Z,98831.25
2022-11-16T19:43:59.268Z,98825.13
2022-11-16T19:46:30.590Z,98833.06
2022-11-16T19:48:58.378Z,98831.78
2022-11-16T19:51:27.957Z,98833.75
2022-11-16T19:53:54.966Z,98819.25
2022-11-16T19:56:24.022Z,98815.69
2022-11-16T19:58:50.885Z,98830.88
2022-11-16T20:01:23.580Z,98820.63
2022-11-16T20:03:50.588Z,98819.16
2022-11-16T20:06:19.164Z,98821.63
2022-11-16T20:08:51.232Z,98826.09
2022-11-16T20:11:23.552Z,98811.59
2022-11-16T20:13:52.285Z,98824.59
2022-11-16T20:16:20.854Z,98823.47
2022-11-16T20:18:47.750Z,98804.97
2022-11-16T20:21:22.040Z,98818.53
2022-11-16T20:23:49.880Z,98813.47
2022-11-16T20:26:16.622Z,98806.91
2022-11-16T20:28:44.047Z,98802.84
2022-11-16T20:31:15.908Z,98806.78
2022-11-16T20:33:49.255Z,98800.13
2022-11-16T20:36:16.050Z,98805.56
2022-11-16T20:38:42.694Z,98800.47
2022-11-16T20:41:16.547Z,98798.88
2022-11-16T20:43:44.415Z,98800.59
2022-11-16T20:46:14.005Z,98802.88
2022-11-16T20:48:42.768Z,98799.94
2022-11-16T20:51:11.617Z,98797.53
2022-11-16T20:53:38.670Z,98791.50
2022-11-16T20:56:07.696Z,98788.47
2022-11-16T20:58:35.092Z,98795.84
2022-11-16T21:01:07.685Z,98791.16
2022-11-16T21:03:34.971Z,98781.06
2022-11-16T21:06:01.764Z,98787.53
2022-11-16T21:08:31.400Z,98792.47
2022-11-16T21:10:58.468Z,98788.88
2022-11-16T21:13:43.611Z,98793.13
2022-11-16T21:16:12.739Z,98795.91
2022-11-16T21:18:40.226Z,98784.91
2022-11-16T21:21:09.501Z,98758.47
2022-11-16T21:23:37.315Z,98797.41
2022-11-16T21:26:11.293Z,98794.97
2022-11-16T21:28:38.630Z,98804.13
2022-11-16T21:31:08.171Z,98790.06
2022-11-16T21:33:35.257Z,98794.69
2022-11-16T21:36:06.593Z,98783.94
2022-11-16T21:38:34.348Z,98783.69
2022-11-16T21:41:01.887Z,98783.50
2022-11-16T21:43:28.571Z,98766.75
2022-11-16T21:46:01.873Z,98782.69
2022-11-16T21:48:28.766Z,98784.31
2022-11-16T21:51:07.353Z,98781.75
2022-11-16T21:53:35.400Z,98784.34
2022-11-16T21:56:03.165Z,98763.97
2022-11-16T21:58:29.800Z,98770.22
2022-11-16T22:00:58.472Z,98771.56
2022-11-16T22:03:28.047Z,98782.03
2022-11-16T22:06:14.660Z,98774.22
2022-11-16T22:08:41.695Z,98771.25
2022-11-16T22:11:09.556Z,98766.66
2022-11-16T22:13:37.592Z,98759.63
2022-11-16T22:16:08.775Z,98759.81
2022-11-16T22:18:36.108Z,98758.91
2022-11-16T22:21:03.277Z,98758.69
2022-11-16T22:23:31.080Z,98758.72
2022-11-16T22:26:06.612Z,98749.03
2022-11-16T22:28:34.320Z,98752.09
2022-11-16T22:31:14.652Z,98747.00
2022-11-16T22:33:41.954Z,98729.25
2022-11-16T22:36:11.776Z,98734.91
2022-11-16T22:38:38.576Z,98730.28
2022-11-16T22:41:05.875Z,98722.97
2022-11-16T22:43:33.171Z,98708.19
2022-11-16T22:46:05.710Z,98736.94
2022-11-16T22:48:37.598Z,98737.47
2022-11-16T22:51:05.800Z,98736.59
2022-11-16T22:53:32.848Z,98728.44
2022-11-16T22:56:09.703Z,98737.09
2022-11-16T22:58:37.719Z,98731.66
2022-11-16T23:01:07.437Z,98728.69
2022-11-16T23:03:34.560Z,98720.66
2022-11-16T23:06:01.968Z,98725.19
2022-11-16T23:08:28.854Z,98723.78
2022-11-16T23:11:17.655Z,98720.28
2022-11-16T23:14:03.621Z,98715.84
2022-11-16T23:16:30.516Z,98694.75
2022-11-16T23:18:57.304Z,98702.44
2022-11-16T23:21:43.007Z,98708.56
2022-11-16T23:24:29.965Z,98706.94
2022-11-16T23:27:16.164Z,98696.25
2022-11-16T23:29:43.254Z,98703.84
2022-11-16T23:32:10.143Z,98693.94
2022-11-16T23:34:36.855Z,98701.88
2022-11-16T23:37:07.978Z,98701.03
2022-11-16T23:39:34.752Z,98705.66
2022-11-16T23:42:19.949Z,98706.56
2022-11-16T23:44:46.857Z,98698.38
2022-11-16T23:47:13.537Z,98689.47
2022-11-16T23:49:40.233Z,98690.66
2022-11-16T23:52:06.848Z,98690.13
2022-11-16T23:54:33.583Z,98678.31
2022-11-16T23:57:00.465Z,98680.91
2022-11-16T23:59:27.260Z,98683.56
